KELD/ELD METAR and TAF weather

Enter ICAO airport designator
Station Type Date Time Source
KELD METAR 2018/01/23 00:53 UTC NOAA

KELD 230053Z AUTO 25007KT 10SM CLR 11/M01 A2999 RMK AO2 SLP153 T01061011


Station Type Date Time Source
KELD Decoded METAR 2018/01/23 00:53 UTC NOAA

SOUTH ARKANSAS REGIONAL, AR, United States (KELD) 33-13N 092-49W 81M
Jan 22, 2018 - 07:53 PM EST / 2018.01.23 0053 UTC
Wind: from the WSW (250 degrees) at 8 MPH (7 KT):0
Visibility: 10 mile(s):0
Sky conditions: clear
Temperature: 51.1 F (10.6 C)
Dew Point: 30.0 F (-1.1 C)
Relative Humidity: 44%
Pressure (altimeter): 29.99 in. Hg (1015 hPa)
ob: KELD 230053Z AUTO 25007KT 10SM CLR 11/M01 A2999 RMK AO2 SLP153 T01061011
cycle: 1

Station Type Date Time Source
KELD TAF 2018/01/22 18:30 UTC NOAA

TAF KELD 221727Z 2218/2318 25013G22KT P6SM SKC
FM222300 24007KT P6SM FEW250
FM231400 30007KT P6SM SKC


Example: see airport list